createdAt,value
2023-02-08T00:01:27.671Z,13.73
2023-02-08T00:03:55.995Z,13.07
2023-02-08T00:06:25.425Z,13.40
2023-02-08T00:08:53.528Z,13.60
2023-02-08T00:11:21.776Z,14.67
2023-02-08T00:13:49.950Z,16.40
2023-02-08T00:16:18.439Z,15.20
2023-02-08T00:18:46.637Z,14.63
2023-02-08T00:21:17.736Z,13.67
2023-02-08T00:23:47.560Z,12.97
2023-02-08T00:26:16.408Z,13.07
2023-02-08T00:28:44.507Z,15.30
2023-02-08T00:31:12.807Z,13.57
2023-02-08T00:33:40.913Z,14.27
2023-02-08T00:36:10.073Z,13.87
2023-02-08T00:38:38.496Z,15.80
2023-02-08T00:41:08.164Z,17.93
2023-02-08T00:43:36.395Z,13.67
2023-02-08T00:46:04.547Z,11.73
2023-02-08T00:48:33.228Z,16.40
2023-02-08T00:51:03.365Z,17.10
2023-02-08T00:53:31.673Z,16.17
2023-02-08T00:55:59.802Z,13.97
2023-02-08T00:58:29.204Z,15.87
2023-02-08T01:00:57.345Z,14.93
2023-02-08T01:03:26.222Z,16.73
2023-02-08T01:05:54.455Z,16.07
2023-02-08T01:08:22.610Z,16.70
2023-02-08T01:10:50.731Z,14.57
2023-02-08T01:13:18.827Z,16.30
2023-02-08T01:15:48.280Z,13.13
2023-02-08T01:18:16.792Z,18.67
2023-02-08T01:20:44.877Z,17.47
2023-02-08T01:23:12.959Z,15.97
2023-02-08T01:25:41.869Z,17.80
2023-02-08T01:28:09.965Z,15.67
2023-02-08T01:30:39.352Z,18.20
2023-02-08T01:33:08.987Z,16.27
2023-02-08T01:35:37.104Z,14.07
2023-02-08T01:38:05.145Z,16.80
2023-02-08T01:40:33.219Z,15.77
2023-02-08T01:43:01.261Z,17.33
2023-02-08T01:45:31.783Z,17.57
2023-02-08T01:48:05.726Z,17.60
2023-02-08T01:50:42.871Z,19.07
2023-02-08T01:53:11.698Z,17.23
2023-02-08T01:55:44.451Z,15.87
2023-02-08T01:58:13.322Z,17.03
2023-02-08T02:00:41.776Z,15.83
2023-02-08T02:03:10.189Z,15.63
2023-02-08T02:05:43.759Z,13.60
2023-02-08T02:08:12.888Z,15.23
2023-02-08T02:10:42.529Z,15.97
2023-02-08T02:13:13.187Z,14.60
2023-02-08T02:15:41.358Z,13.90
2023-02-08T02:18:11.076Z,16.30
2023-02-08T02:21:06.518Z,15.93
2023-02-08T02:24:04.221Z,15.07
2023-02-08T02:27:02.596Z,16.17
2023-02-08T02:30:02.730Z,13.13
2023-02-08T02:32:55.292Z,14.07
2023-02-08T02:35:29.345Z,13.40
2023-02-08T02:38:09.108Z,16.47
2023-02-08T02:40:47.765Z,15.70
2023-02-08T02:43:37.876Z,18.27
2023-02-08T02:46:13.770Z,17.63
2023-02-08T02:48:48.922Z,13.97
2023-02-08T02:51:21.466Z,13.53
2023-02-08T02:53:55.417Z,14.50
2023-02-08T02:56:26.864Z,16.30
2023-02-08T02:59:00.038Z,15.20
2023-02-08T03:07:07.249Z,17.37
2023-02-08T03:09:57.657Z,19.57
2023-02-08T03:12:40.961Z,15.67
2023-02-08T03:15:21.003Z,16.50
2023-02-08T03:18:03.740Z,15.30
2023-02-08T03:20:35.117Z,17.60
2023-02-08T03:23:10.905Z,20.10
2023-02-08T03:25:50.012Z,16.87
2023-02-08T03:28:25.039Z,16.27
2023-02-08T03:31:02.759Z,20.73
2023-02-08T03:33:37.571Z,18.73
2023-02-08T03:36:12.458Z,18.50
2023-02-08T03:38:44.849Z,20.50
2023-02-08T03:41:19.000Z,16.63
2023-02-08T03:43:53.770Z,19.07
2023-02-08T03:46:24.843Z,16.90
2023-02-08T03:48:58.172Z,17.17
2023-02-08T03:51:29.404Z,16.20
2023-02-08T03:54:02.131Z,16.40
2023-02-08T03:56:36.844Z,16.80
2023-02-08T03:59:08.700Z,15.33
2023-02-08T04:01:43.999Z,16.57
2023-02-08T04:04:13.938Z,15.07
2023-02-08T04:06:42.145Z,19.90
2023-02-08T04:09:11.874Z,18.37
2023-02-08T04:11:39.925Z,15.53
2023-02-08T04:14:08.040Z,18.10
2023-02-08T04:16:36.084Z,19.30
2023-02-08T04:19:04.191Z,18.17
2023-02-08T04:21:32.314Z,16.37
2023-02-08T04:24:01.073Z,16.33
2023-02-08T04:26:30.545Z,17.70
2023-02-08T04:28:58.749Z,15.13
2023-02-08T04:31:26.925Z,17.83
2023-02-08T04:33:55.120Z,18.53
2023-02-08T04:36:23.272Z,22.83
2023-02-08T04:38:51.401Z,19.47
2023-02-08T04:41:19.542Z,25.90
2023-02-08T04:43:49.053Z,19.03
2023-02-08T04:46:17.167Z,16.67
2023-02-08T04:48:45.215Z,20.37
2023-02-08T04:51:13.272Z,18.63
2023-02-08T04:53:41.334Z,17.93
2023-02-08T04:56:09.713Z,15.97
2023-02-08T04:58:37.872Z,19.43
2023-02-08T05:01:10.892Z,18.17
2023-02-08T05:03:39.080Z,16.80
2023-02-08T05:06:07.825Z,15.03
2023-02-08T05:08:35.901Z,14.30
2023-02-08T05:11:04.206Z,21.67
2023-02-08T05:13:32.301Z,15.63
2023-02-08T05:16:00.470Z,16.70
2023-02-08T05:18:30.036Z,17.50
2023-02-08T05:21:35.157Z,15.87
2023-02-08T05:24:03.303Z,17.57
2023-02-08T05:26:31.418Z,22.33
2023-02-08T05:28:59.773Z,17.27
2023-02-08T05:31:27.953Z,17.77
2023-02-08T05:33:57.690Z,14.40
2023-02-08T05:36:25.819Z,15.03
2023-02-08T05:38:54.301Z,16.33
2023-02-08T05:41:22.707Z,16.10
2023-02-08T05:43:50.801Z,17.83
2023-02-08T05:46:18.906Z,14.77
2023-02-08T05:48:47.093Z,14.80
2023-02-08T05:51:16.654Z,18.70
2023-02-08T05:53:45.503Z,18.30
2023-02-08T05:56:13.738Z,17.60
2023-02-08T05:58:41.802Z,15.93
2023-02-08T06:01:11.379Z,17.40
2023-02-08T06:03:40.205Z,16.30
2023-02-08T06:06:11.175Z,15.23
2023-02-08T06:08:41.453Z,15.87
2023-02-08T06:11:09.625Z,15.33
2023-02-08T06:13:39.102Z,15.33
2023-02-08T06:16:08.221Z,15.37
2023-02-08T06:18:36.332Z,12.77
2023-02-08T06:21:04.580Z,16.27
2023-02-08T06:23:32.819Z,16.43
2023-02-08T06:26:02.331Z,15.97
2023-02-08T06:28:30.514Z,13.60
2023-02-08T06:30:58.658Z,12.67
2023-02-08T06:33:26.757Z,14.83
2023-02-08T06:35:55.014Z,15.43
2023-02-08T06:38:23.112Z,12.77
2023-02-08T06:40:51.608Z,12.37
2023-02-08T06:43:21.101Z,12.47
2023-02-08T06:45:49.516Z,11.37
2023-02-08T06:48:17.656Z,13.90
2023-02-08T06:50:45.778Z,10.87
2023-02-08T06:53:13.868Z,10.73
2023-02-08T06:55:42.729Z,11.33
2023-02-08T06:58:11.247Z,11.63
2023-02-08T07:00:41.083Z,14.40
2023-02-08T07:03:10.165Z,9.57
2023-02-08T07:05:38.710Z,10.10
2023-02-08T07:08:07.284Z,11.67
2023-02-08T07:10:35.579Z,12.53
2023-02-08T07:13:03.862Z,10.57
2023-02-08T07:15:31.969Z,10.00
2023-02-08T07:18:01.434Z,8.17
2023-02-08T07:20:30.321Z,9.07
2023-02-08T07:22:59.345Z,15.27
2023-02-08T07:25:27.426Z,12.83
2023-02-08T07:27:55.570Z,10.73
2023-02-08T07:30:23.689Z,10.10
2023-02-08T07:32:51.795Z,10.03
2023-02-08T07:35:21.223Z,10.20
2023-02-08T07:37:49.392Z,6.40
2023-02-08T07:40:17.617Z,8.40
2023-02-08T07:42:45.774Z,8.27
2023-02-08T07:45:13.852Z,12.03
2023-02-08T07:47:41.926Z,11.07
2023-02-08T07:50:10.352Z,9.87
2023-02-08T07:52:39.790Z,8.50
2023-02-08T07:55:09.973Z,10.30
2023-02-08T07:57:38.036Z,6.53
2023-02-08T08:00:06.831Z,9.53
2023-02-08T08:02:34.979Z,9.83
2023-02-08T08:05:03.067Z,9.40
2023-02-08T08:07:31.238Z,8.40
2023-02-08T08:10:00.698Z,7.93
2023-02-08T08:12:28.854Z,9.27
2023-02-08T08:14:57.019Z,8.37
2023-02-08T08:17:25.201Z,7.43
2023-02-08T08:19:53.227Z,6.23
2023-02-08T08:22:21.321Z,6.77
2023-02-08T08:24:49.436Z,6.30
2023-02-08T08:27:18.887Z,7.17
2023-02-08T08:29:46.972Z,11.10
2023-02-08T08:32:15.048Z,7.07
2023-02-08T08:34:43.302Z,8.93
2023-02-08T08:37:11.443Z,8.57
2023-02-08T08:39:39.541Z,8.97
2023-02-08T08:42:07.636Z,8.57
2023-02-08T08:44:37.361Z,8.77
2023-02-08T08:47:05.511Z,8.00
2023-02-08T08:49:35.146Z,6.93
2023-02-08T08:52:03.289Z,7.53
2023-02-08T08:54:31.425Z,7.53
2023-02-08T08:56:59.549Z,7.47
2023-02-08T08:59:28.263Z,6.10
2023-02-08T09:01:57.943Z,6.70
2023-02-08T09:04:26.286Z,6.30
2023-02-08T09:06:54.883Z,6.30
2023-02-08T09:09:23.971Z,7.07
2023-02-08T09:11:52.050Z,7.23
2023-02-08T09:14:20.180Z,6.23
2023-02-08T09:16:49.222Z,7.17
2023-02-08T09:19:18.717Z,8.47
2023-02-08T09:21:47.151Z,7.57
2023-02-08T09:24:15.242Z,5.67
2023-02-08T09:26:45.820Z,10.33
2023-02-08T09:29:13.931Z,6.97
2023-02-08T09:31:42.539Z,6.43
2023-02-08T09:34:11.175Z,6.17
2023-02-08T09:36:42.002Z,7.80
2023-02-08T09:39:12.462Z,7.53
2023-02-08T09:42:11.589Z,7.30
2023-02-08T09:44:52.166Z,9.40
2023-02-08T09:47:23.707Z,6.23
2023-02-08T09:49:58.660Z,7.87
2023-02-08T09:52:35.763Z,7.17
2023-02-08T09:55:12.398Z,7.97
2023-02-08T09:57:41.197Z,8.53
2023-02-08T10:00:16.570Z,6.93
2023-02-08T10:02:45.317Z,6.73
2023-02-08T10:05:15.884Z,6.50
2023-02-08T10:07:45.450Z,7.23
2023-02-08T10:10:17.542Z,6.40
2023-02-08T10:12:52.567Z,7.20
2023-02-08T10:15:36.083Z,8.53
2023-02-08T10:18:20.147Z,6.13
2023-02-08T10:21:02.269Z,7.97
2023-02-08T10:23:43.684Z,6.47
2023-02-08T10:26:19.688Z,7.77
2023-02-08T10:29:16.468Z,6.67
2023-02-08T10:31:58.174Z,6.20
2023-02-08T10:34:36.203Z,5.60
2023-02-08T10:37:11.716Z,5.30
2023-02-08T10:39:41.377Z,5.20
2023-02-08T10:42:16.727Z,7.37
2023-02-08T10:44:56.825Z,5.13
2023-02-08T10:47:38.672Z,6.87
2023-02-08T10:50:14.038Z,9.37
2023-02-08T10:52:43.031Z,6.57
2023-02-08T10:55:17.119Z,6.73
2023-02-08T10:57:47.112Z,8.03
2023-02-08T11:00:20.938Z,4.77
2023-02-08T11:02:52.684Z,6.97
2023-02-08T11:05:23.457Z,10.87
2023-02-08T11:08:07.576Z,4.13
2023-02-08T11:10:38.593Z,6.33
2023-02-08T11:13:16.047Z,5.50
2023-02-08T11:15:47.557Z,4.40
2023-02-08T11:18:22.172Z,5.97
2023-02-08T11:20:52.447Z,6.63
2023-02-08T11:23:29.619Z,5.17
2023-02-08T11:26:16.646Z,5.97
2023-02-08T11:28:45.056Z,4.60
2023-02-08T11:31:19.033Z,4.47
2023-02-08T11:34:01.557Z,5.47
2023-02-08T11:36:32.633Z,4.37
2023-02-08T11:39:03.577Z,4.87
2023-02-08T11:41:33.755Z,4.30
2023-02-08T11:44:05.575Z,5.13
2023-02-08T11:46:37.322Z,9.50
2023-02-08T11:49:05.635Z,3.70
2023-02-08T11:51:36.663Z,4.40
2023-02-08T11:54:06.839Z,3.53
2023-02-08T11:56:36.442Z,5.57
2023-02-08T11:59:17.261Z,2.63
2023-02-08T12:01:45.542Z,5.87
2023-02-08T12:04:16.291Z,4.37
2023-02-08T12:07:16.501Z,4.40
2023-02-08T12:10:03.533Z,2.87
2023-02-08T12:12:45.441Z,2.60
2023-02-08T12:15:23.971Z,3.40
2023-02-08T12:18:21.012Z,2.93
2023-02-08T12:20:52.890Z,4.37
2023-02-08T12:23:31.254Z,2.73
2023-02-08T12:26:11.686Z,2.73
2023-02-08T12:28:55.281Z,3.20
2023-02-08T12:31:34.478Z,3.67
2023-02-08T12:34:10.951Z,3.47
2023-02-08T12:37:14.506Z,4.30
2023-02-08T12:40:07.889Z,9.57
2023-02-08T12:42:50.301Z,5.67
2023-02-08T12:45:47.904Z,6.67
2023-02-08T12:48:28.879Z,10.37
2023-02-08T12:51:03.816Z,7.40
2023-02-08T12:53:36.279Z,5.73
2023-02-08T12:56:10.839Z,7.07
2023-02-08T12:58:42.717Z,8.70
2023-02-08T13:01:15.975Z,5.83
2023-02-08T13:03:49.021Z,4.30
2023-02-08T13:06:19.760Z,7.10
2023-02-08T13:08:52.488Z,5.03
2023-02-08T13:11:30.253Z,4.50
2023-02-08T13:14:03.689Z,4.50
2023-02-08T13:16:38.430Z,4.00
2023-02-08T13:19:30.714Z,6.13
2023-02-08T13:22:00.915Z,6.53
2023-02-08T13:24:35.425Z,3.93
2023-02-08T13:27:06.982Z,5.73
2023-02-08T13:29:36.086Z,4.53
2023-02-08T13:32:10.099Z,8.23
2023-02-08T13:34:41.871Z,4.80
2023-02-08T13:37:25.469Z,4.17
2023-02-08T13:40:02.624Z,5.07
2023-02-08T13:42:35.415Z,5.20
2023-02-08T13:45:06.108Z,4.37
2023-02-08T13:47:43.702Z,3.70
2023-02-08T13:50:40.937Z,4.07
2023-02-08T13:53:09.825Z,3.63
2023-02-08T13:55:57.228Z,5.47
2023-02-08T13:58:38.567Z,3.43
2023-02-08T14:01:20.570Z,3.70
2023-02-08T14:04:21.748Z,5.07
2023-02-08T14:06:54.965Z,4.27
2023-02-08T14:09:28.823Z,4.27
2023-02-08T14:12:02.342Z,3.87
2023-02-08T14:14:33.167Z,5.20
2023-02-08T14:17:18.775Z,4.50
2023-02-08T14:19:56.606Z,6.87
2023-02-08T14:22:29.612Z,4.43
2023-02-08T14:25:05.961Z,5.50
2023-02-08T14:27:39.506Z,4.30
2023-02-08T14:30:10.632Z,5.60
2023-02-08T14:32:40.875Z,5.67
2023-02-08T14:35:19.138Z,3.87
2023-02-08T14:37:52.191Z,6.03
2023-02-08T14:40:50.508Z,3.43
2023-02-08T14:43:42.896Z,3.90
2023-02-08T14:46:45.312Z,4.67
2023-02-08T14:49:14.588Z,4.77
2023-02-08T14:51:48.026Z,3.70
2023-02-08T14:54:22.415Z,3.07
2023-02-08T14:57:01.523Z,9.23
2023-02-08T14:59:33.132Z,4.27
2023-02-08T15:02:02.985Z,3.70
2023-02-08T15:04:31.843Z,3.03
2023-02-08T15:07:33.088Z,6.33
2023-02-08T15:10:04.898Z,3.77
2023-02-08T15:12:35.916Z,4.80
2023-02-08T15:15:05.560Z,7.30
2023-02-08T15:17:37.928Z,4.13
2023-02-08T15:20:08.689Z,3.13
2023-02-08T15:22:38.385Z,3.17
2023-02-08T15:25:23.738Z,3.30
2023-02-08T15:27:54.521Z,3.53
2023-02-08T15:30:34.204Z,3.07
2023-02-08T15:33:04.861Z,3.67
2023-02-08T15:35:35.288Z,4.27
2023-02-08T15:38:05.962Z,4.97
2023-02-08T15:40:36.573Z,4.53
2023-02-08T15:43:12.955Z,2.80
2023-02-08T15:45:41.188Z,3.33
2023-02-08T15:48:09.695Z,4.50
2023-02-08T15:50:38.161Z,7.27
2023-02-08T15:53:08.702Z,2.70
2023-02-08T15:55:47.332Z,3.07
2023-02-08T15:58:22.073Z,4.10
2023-02-08T16:00:50.249Z,3.53
2023-02-08T16:03:23.650Z,11.57
2023-02-08T16:05:54.210Z,3.40
2023-02-08T16:08:27.812Z,2.57
2023-02-08T16:11:00.587Z,2.17
2023-02-08T16:13:31.481Z,1.90
2023-02-08T16:16:16.699Z,2.73
2023-02-08T16:18:47.041Z,1.93
2023-02-08T16:21:30.620Z,5.30
2023-02-08T16:24:00.686Z,2.80
2023-02-08T16:26:35.243Z,3.60
2023-02-08T16:29:06.341Z,3.57
2023-02-08T16:31:36.697Z,3.60
2023-02-08T16:34:07.351Z,2.67
2023-02-08T16:36:42.109Z,5.33
2023-02-08T16:39:37.403Z,2.40
2023-02-08T16:42:15.171Z,3.97
2023-02-08T16:45:03.861Z,2.50
2023-02-08T16:47:38.273Z,4.33
2023-02-08T16:50:07.133Z,3.97
2023-02-08T16:52:35.955Z,2.20
2023-02-08T16:55:05.112Z,4.60
2023-02-08T16:57:43.139Z,2.77
2023-02-08T17:00:20.950Z,4.73
2023-02-08T17:02:49.844Z,3.50
2023-02-08T17:05:19.309Z,4.77
2023-02-08T17:07:47.636Z,4.13
2023-02-08T17:10:20.818Z,6.00
2023-02-08T17:12:50.380Z,5.03
2023-02-08T17:15:19.488Z,3.57
2023-02-08T17:17:47.679Z,6.43
2023-02-08T17:20:21.365Z,6.07
2023-02-08T17:22:50.428Z,6.20
2023-02-08T17:25:20.089Z,82.60
2023-02-08T17:27:53.733Z,68.83
2023-02-08T17:30:24.853Z,16.70
2023-02-08T17:32:53.713Z,7.00
2023-02-08T17:35:21.968Z,6.40
2023-02-08T17:37:53.100Z,3.47
2023-02-08T17:40:22.123Z,4.37
2023-02-08T17:42:53.328Z,3.70
2023-02-08T17:45:21.734Z,3.97
2023-02-08T17:47:49.920Z,3.40
2023-02-08T18:01:53.072Z,6.27
2023-02-08T18:04:21.312Z,5.97
2023-02-08T18:06:49.467Z,5.70
2023-02-08T18:09:17.728Z,7.43
2023-02-08T18:11:46.060Z,5.10
2023-02-08T18:14:14.326Z,5.50
2023-02-08T18:16:42.472Z,4.13
2023-02-08T18:19:12.003Z,3.87
2023-02-08T18:21:40.119Z,4.17
2023-02-08T18:24:08.460Z,4.13
2023-02-08T18:26:36.551Z,4.50
2023-02-08T18:29:05.494Z,4.13
2023-02-08T18:31:34.270Z,3.03
2023-02-08T18:34:02.741Z,4.13
2023-02-08T18:36:32.364Z,8.57
2023-02-08T18:39:00.469Z,4.13
2023-02-08T18:41:30.413Z,3.77
2023-02-08T18:43:59.949Z,3.30
2023-02-08T18:46:29.929Z,5.47
2023-02-08T18:48:58.428Z,3.73
2023-02-08T18:51:27.234Z,3.93
2023-02-08T18:53:56.895Z,4.07
2023-02-08T18:56:27.281Z,4.13
2023-02-08T18:58:56.456Z,4.67
2023-02-08T19:01:25.388Z,4.00
2023-02-08T19:03:54.109Z,4.30
2023-02-08T19:06:24.821Z,3.93
2023-02-08T19:08:54.898Z,6.07
2023-02-08T19:11:26.736Z,5.07
2023-02-08T19:13:57.383Z,3.97
2023-02-08T19:16:27.641Z,3.17
2023-02-08T19:18:57.297Z,3.63
2023-02-08T19:21:25.556Z,4.03
2023-02-08T19:23:54.901Z,4.03
2023-02-08T19:26:26.238Z,4.30
2023-02-08T19:28:57.132Z,3.97
2023-02-08T19:31:26.669Z,3.50
2023-02-08T19:33:58.694Z,3.13
2023-02-08T19:36:28.465Z,3.90
2023-02-08T19:38:57.569Z,3.60
2023-02-08T19:41:29.473Z,12.60
2023-02-08T19:43:57.588Z,16.07
2023-02-08T19:46:27.635Z,9.70
2023-02-08T19:48:59.994Z,6.07
2023-02-08T19:51:28.600Z,6.17
2023-02-08T19:53:57.776Z,13.87
2023-02-08T19:56:27.502Z,6.37
2023-02-08T19:58:55.593Z,6.50
2023-02-08T20:01:24.271Z,9.67
2023-02-08T20:03:54.545Z,10.63
2023-02-08T20:06:26.575Z,11.47
2023-02-08T20:08:55.296Z,10.40
2023-02-08T20:11:25.871Z,4.83
2023-02-08T20:13:57.791Z,5.40
2023-02-08T20:16:26.222Z,4.47
2023-02-08T20:18:54.462Z,2.87
2023-02-08T20:21:22.850Z,4.47
2023-02-08T20:23:51.559Z,6.70
2023-02-08T20:26:21.362Z,3.70
2023-02-08T20:28:51.346Z,3.87
2023-02-08T20:31:22.974Z,3.90
2023-02-08T20:33:52.296Z,5.17
2023-02-08T20:36:22.500Z,6.83
2023-02-08T20:38:51.608Z,4.83
2023-02-08T20:41:20.922Z,5.70
2023-02-08T20:43:49.107Z,5.87
2023-02-08T20:46:22.247Z,7.17
2023-02-08T20:48:51.303Z,4.43
2023-02-08T20:51:22.274Z,4.20
2023-02-08T20:53:51.552Z,6.00
2023-02-08T20:56:22.227Z,4.93
2023-02-08T20:58:51.286Z,5.67
2023-02-08T21:01:23.259Z,6.87
2023-02-08T21:03:53.319Z,6.37
2023-02-08T21:06:23.248Z,5.17
2023-02-08T21:08:52.215Z,9.87
2023-02-08T21:11:21.844Z,6.37
2023-02-08T21:13:50.502Z,8.30
2023-02-08T21:16:20.625Z,4.83
2023-02-08T21:18:48.778Z,5.07
2023-02-08T21:21:17.739Z,5.43
2023-02-08T21:23:46.172Z,4.13
2023-02-08T21:26:16.447Z,6.77
2023-02-08T21:28:45.064Z,4.23
2023-02-08T21:31:15.864Z,5.63
2023-02-08T21:33:45.586Z,4.13
2023-02-08T21:36:16.152Z,5.27
2023-02-08T21:38:44.743Z,7.40
2023-02-08T21:41:17.162Z,4.50
2023-02-08T21:43:45.443Z,6.30
2023-02-08T21:46:13.782Z,7.50
2023-02-08T21:48:59.179Z,7.97
2023-02-08T21:51:46.279Z,5.80
2023-02-08T21:54:33.755Z,6.13
2023-02-08T21:57:05.503Z,6.40
2023-02-08T21:59:36.818Z,6.10
2023-02-08T22:02:06.672Z,12.37
2023-02-08T22:04:35.477Z,6.50
2023-02-08T22:07:05.664Z,6.10
2023-02-08T22:09:36.007Z,3.70
2023-02-08T22:12:04.165Z,5.93
2023-02-08T22:14:35.309Z,6.07
2023-02-08T22:17:03.533Z,5.50
2023-02-08T22:19:31.726Z,6.57
2023-02-08T22:21:59.905Z,6.10
2023-02-08T22:24:29.462Z,6.47
2023-02-08T22:26:57.627Z,6.00
2023-02-08T22:29:25.745Z,4.70
2023-02-08T22:31:53.971Z,7.70
2023-02-08T22:34:22.239Z,6.23
2023-02-08T22:36:50.346Z,5.93
2023-02-08T22:39:18.482Z,4.70
2023-02-08T22:41:48.028Z,7.17
2023-02-08T22:44:16.192Z,6.37
2023-02-08T22:46:44.479Z,9.97
2023-02-08T22:49:12.647Z,6.77
2023-02-08T22:51:40.838Z,8.33
2023-02-08T22:54:09.004Z,6.77
2023-02-08T22:56:37.196Z,8.00
2023-02-08T22:59:06.694Z,6.63
2023-02-08T23:01:34.988Z,5.87
2023-02-08T23:04:03.139Z,7.23
2023-02-08T23:06:31.625Z,6.23
2023-02-08T23:09:00.065Z,6.90
2023-02-08T23:11:28.236Z,7.47
2023-02-08T23:13:56.278Z,6.17
2023-02-08T23:16:25.878Z,4.87
2023-02-08T23:18:54.070Z,6.47
2023-02-08T23:21:22.486Z,6.43
2023-02-08T23:23:50.801Z,8.37
2023-02-08T23:26:21.205Z,7.13
2023-02-08T23:28:51.618Z,6.83
2023-02-08T23:31:20.255Z,7.50
2023-02-08T23:33:49.881Z,8.40
2023-02-08T23:36:20.700Z,6.90
2023-02-08T23:38:49.362Z,7.10
2023-02-08T23:41:19.541Z,7.17
2023-02-08T23:43:48.171Z,7.67
2023-02-08T23:46:18.512Z,5.23
2023-02-08T23:48:47.729Z,8.50
2023-02-08T23:51:19.161Z,6.83
2023-02-08T23:53:47.689Z,7.90
2023-02-08T23:56:18.889Z,5.60
2023-02-08T23:58:49.637Z,7.20
